Time;durP1;ratioP1;P1;durP2;ratioP2;P2;SDS_P1;SDS_P2;PMS_P1;PMS_P2;Temp;Humidity;BMP_temperature;BMP_pressure;BME280_temperature;BME280_humidity;BME280_pressure;Samples;Min_cycle;Max_cycle;Signal;HPM_P1;HPM_P2
2024/01/08 00:01:32;;;;;;;15.45;9.05;;;-3276.10;88.60;;;;;;5032902;28;20036;-80
2024/01/08 00:03:58;;;;;;;14.88;8.63;;;-3276.10;88.30;;;;;;5038873;28;20074;-81
2024/01/08 00:06:24;;;;;;;15.65;9.02;;;-3276.10;88.20;;;;;;5040697;28;20062;-81
2024/01/08 00:08:50;;;;;;;15.38;8.52;;;-3276.10;88.10;;;;;;5046037;28;20048;-81
2024/01/08 00:11:16;;;;;;;12.63;8.02;;;-3276.10;88.00;;;;;;5049703;28;20036;-81
2024/01/08 00:13:41;;;;;;;13.15;8.00;;;-3276.10;87.70;;;;;;5052597;28;20032;-80
2024/01/08 00:16:07;;;;;;;13.85;8.45;;;-3276.10;87.60;;;;;;5054043;28;20465;-81
2024/01/08 00:18:33;;;;;;;11.65;7.97;;;-3276.10;87.60;;;;;;5036772;28;20385;-80
2024/01/08 00:20:59;;;;;;;14.00;8.27;;;-3276.10;87.70;;;;;;5049451;28;20480;-80
2024/01/08 00:23:27;;;;;;;13.55;8.25;;;-3276.10;87.90;;;;;;5031242;28;20021;-79
2024/01/08 00:25:52;;;;;;;15.27;8.48;;;-3276.10;88.00;;;;;;5034651;28;20174;-81
2024/01/08 00:28:18;;;;;;;14.45;8.32;;;-3276.10;88.00;;;;;;5053620;28;20133;-81
2024/01/08 00:30:43;;;;;;;14.25;8.52;;;-3276.10;88.00;;;;;;5052335;28;20016;-81
2024/01/08 00:33:09;;;;;;;14.40;7.43;;;-3276.10;87.80;;;;;;5028234;28;20040;-81
2024/01/08 00:35:35;;;;;;;13.70;7.15;;;-3276.10;87.80;;;;;;5034073;28;20012;-80
2024/01/08 00:38:00;;;;;;;14.82;7.70;;;-3276.10;87.70;;;;;;5030935;28;20045;-80
2024/01/08 00:40:26;;;;;;;12.15;6.97;;;-3276.10;87.40;;;;;;5054925;28;20033;-79
2024/01/08 00:42:52;;;;;;;14.05;7.00;;;-3276.10;87.20;;;;;;5045052;28;20221;-80
2024/01/08 00:45:17;;;;;;;11.27;6.72;;;-3276.10;87.30;;;;;;5054427;28;20427;-80
2024/01/08 00:47:43;;;;;;;11.35;6.68;;;-3276.10;87.20;;;;;;5037742;28;20025;-80
2024/01/08 00:50:10;;;;;;;13.40;7.28;;;-3276.10;87.30;;;;;;5036880;28;20056;-80
2024/01/08 00:52:36;;;;;;;13.07;7.13;;;-3276.10;87.50;;;;;;5036896;28;20040;-80
2024/01/08 00:55:05;;;;;;;12.10;6.90;;;-3276.00;87.80;;;;;;5040618;28;20251;-80
2024/01/08 00:57:32;;;;;;;13.60;7.57;;;-3276.00;88.10;;;;;;5036173;28;20112;-80
2024/01/08 00:59:58;;;;;;;16.23;8.15;;;-3276.00;88.40;;;;;;5038106;28;20787;-80
2024/01/08 01:02:23;;;;;;;14.55;6.82;;;-3276.00;88.20;;;;;;5041216;28;20059;-80
2024/01/08 01:04:49;;;;;;;10.23;5.80;;;-3276.00;87.50;;;;;;5041160;28;20477;-79
2024/01/08 01:07:15;;;;;;;10.45;5.82;;;-3276.10;86.50;;;;;;5050980;28;20837;-79
2024/01/08 01:09:40;;;;;;;12.65;5.70;;;-3276.10;86.20;;;;;;5056169;28;20447;-79
2024/01/08 01:12:06;;;;;;;9.27;5.05;;;-3276.10;86.10;;;;;;5055090;28;20107;-79
2024/01/08 01:14:32;;;;;;;12.68;5.72;;;-3276.20;86.00;;;;;;5053921;28;20350;-79
2024/01/08 01:16:57;;;;;;;9.20;5.13;;;-3276.20;86.10;;;;;;5035488;28;20033;-80
2024/01/08 01:19:23;;;;;;;10.13;5.35;;;-3276.20;86.30;;;;;;5032295;28;20358;-80
2024/01/08 01:21:49;;;;;;;10.38;5.22;;;-3276.20;86.50;;;;;;5051714;28;20047;-80
2024/01/08 01:24:14;;;;;;;11.77;5.53;;;-3276.20;86.60;;;;;;5040244;28;20067;-80
2024/01/08 01:26:40;;;;;;;20.85;7.72;;;-3276.10;86.80;;;;;;5058384;28;20099;-80
2024/01/08 01:29:06;;;;;;;9.68;5.50;;;-3276.10;87.10;;;;;;5035723;28;20036;-79
2024/01/08 01:31:33;;;;;;;10.82;6.30;;;-3276.10;87.20;;;;;;5034921;28;20472;-80
2024/01/08 01:33:59;;;;;;;11.02;6.28;;;-3276.10;87.50;;;;;;5054486;28;20021;-79
2024/01/08 01:36:25;;;;;;;12.05;6.30;;;-3276.10;87.50;;;;;;5041377;28;20492;-79
2024/01/08 01:38:51;;;;;;;10.40;6.40;;;-3276.10;87.80;;;;;;5050260;28;20029;-80
2024/01/08 01:41:16;;;;;;;12.88;6.63;;;-3276.20;87.80;;;;;;5030318;28;20033;-80
2024/01/08 01:43:42;;;;;;;13.15;7.97;;;-3276.20;87.90;;;;;;5056625;28;20040;-82
2024/01/08 01:46:20;;;;;;;14.43;7.35;;;-3276.20;87.90;;;;;;5057232;28;20603;-80
2024/01/08 01:48:45;;;;;;;12.65;7.97;;;-3276.20;87.90;;;;;;5050293;28;20041;-80
2024/01/08 01:51:12;;;;;;;11.65;7.85;;;-3276.30;87.90;;;;;;5053346;28;20165;-81
2024/01/08 01:53:38;;;;;;;12.98;7.30;;;-3276.30;87.50;;;;;;5039263;28;20028;-80
2024/01/08 01:56:03;;;;;;;14.00;7.05;;;-3276.30;87.10;;;;;;5037449;28;20761;-81
2024/01/08 01:58:29;;;;;;;10.35;6.82;;;-3276.40;87.10;;;;;;5038797;28;20029;-79
2024/01/08 02:00:55;;;;;;;12.07;7.45;;;-3276.40;87.20;;;;;;5039141;28;20114;-80
2024/01/08 02:03:21;;;;;;;14.80;8.50;;;-3276.40;87.40;;;;;;5041925;28;20329;-82
2024/01/08 02:05:47;;;;;;;12.85;8.73;;;-3276.40;87.10;;;;;;5054324;28;20028;-83
2024/01/08 02:08:13;;;;;;;12.70;7.82;;;-3276.40;86.90;;;;;;5049325;28;20504;-83
2024/01/08 02:10:42;;;;;;;13.50;7.38;;;-3276.30;86.80;;;;;;5052397;28;20048;-82
2024/01/08 02:13:08;;;;;;;12.80;7.30;;;-3276.20;85.70;;;;;;5042095;28;20465;-83
2024/01/08 02:15:33;;;;;;;10.80;6.72;;;-3276.10;84.90;;;;;;5039489;28;20036;-82
2024/01/08 02:17:59;;;;;;;10.75;7.10;;;-3276.00;84.60;;;;;;5051241;28;20044;-81
2024/01/08 02:20:25;;;;;;;10.98;7.47;;;-3275.90;84.50;;;;;;5039697;28;20017;-82
2024/01/08 02:22:51;;;;;;;11.55;6.90;;;-3275.90;84.50;;;;;;5032965;28;20036;-82
2024/01/08 02:25:17;;;;;;;12.77;7.00;;;-3275.80;83.90;;;;;;5036318;28;20035;-81
2024/01/08 02:27:43;;;;;;;10.95;7.13;;;-3275.80;83.90;;;;;;5056011;28;20347;-82
2024/01/08 02:30:09;;;;;;;11.00;7.05;;;-3275.80;84.30;;;;;;5053688;28;20036;-81
2024/01/08 02:32:34;;;;;;;12.43;7.78;;;-3275.60;84.10;;;;;;5055158;28;20039;-82
2024/01/08 02:35:00;;;;;;;11.15;7.60;;;-3275.60;84.40;;;;;;5059024;28;20377;-82
2024/01/08 02:37:26;;;;;;;12.75;8.10;;;-3275.60;84.10;;;;;;5037628;28;20048;-80
2024/01/08 02:39:51;;;;;;;12.38;7.90;;;-3275.60;84.50;;;;;;5035453;28;20480;-79
2024/01/08 02:42:18;;;;;;;14.88;8.40;;;-3275.60;84.70;;;;;;5044199;28;20032;-82
2024/01/08 02:44:44;;;;;;;12.13;8.25;;;-3275.60;84.60;;;;;;5057599;28;20017;-83
2024/01/08 02:47:10;;;;;;;12.73;8.25;;;-3275.60;84.60;;;;;;5035280;28;20032;-82
2024/01/08 02:49:35;;;;;;;14.80;8.60;;;-3275.60;84.60;;;;;;5033070;28;20044;-80
2024/01/08 02:52:01;;;;;;;14.70;8.60;;;-3275.70;84.70;;;;;;5036704;28;20354;-80
2024/01/08 02:54:27;;;;;;;14.57;8.75;;;-3275.60;84.60;;;;;;5048474;28;20025;-80
2024/01/08 02:56:52;;;;;;;13.55;8.52;;;-3275.60;84.40;;;;;;5055455;28;20539;-80
2024/01/08 02:59:18;;;;;;;12.20;8.60;;;-3275.70;84.60;;;;;;5056279;28;20105;-81
2024/01/08 03:01:43;;;;;;;12.65;8.60;;;-3275.70;84.30;;;;;;5054924;28;20081;-81
2024/01/08 03:04:09;;;;;;;13.10;9.02;;;-3275.70;84.40;;;;;;5050149;28;20033;-81
2024/01/08 03:06:35;;;;;;;11.52;7.85;;;-3275.60;84.00;;;;;;5053853;28;20560;-80
2024/01/08 03:09:00;;;;;;;12.10;7.72;;;-3275.60;83.80;;;;;;5037591;28;20044;-81
2024/01/08 03:11:27;;;;;;;12.90;8.57;;;-3275.60;83.60;;;;;;5053273;28;20113;-81
2024/01/08 03:13:52;;;;;;;14.05;9.30;;;-3275.70;83.70;;;;;;5055422;28;20035;-80
2024/01/08 03:16:18;;;;;;;13.65;8.85;;;-3275.70;83.60;;;;;;5038003;28;20052;-80
2024/01/08 03:18:45;;;;;;;12.40;8.27;;;-3275.70;83.60;;;;;;5037712;28;20033;-80
2024/01/08 03:21:10;;;;;;;14.63;9.25;;;-3275.60;82.80;;;;;;5054171;28;20069;-80
2024/01/08 03:23:36;;;;;;;14.20;8.75;;;-3275.70;83.30;;;;;;5050836;28;20059;-80
2024/01/08 03:26:02;;;;;;;14.32;9.35;;;-3275.70;82.80;;;;;;5031303;28;20009;-80
2024/01/08 03:28:28;;;;;;;14.10;9.60;;;-3275.70;82.70;;;;;;5055670;28;20032;-80
2024/01/08 03:30:53;;;;;;;14.50;8.85;;;-3275.70;82.70;;;;;;5058722;28;20074;-80
2024/01/08 03:33:19;;;;;;;15.05;9.85;;;-3275.70;82.90;;;;;;5033962;28;20036;-81
2024/01/08 03:35:45;;;;;;;13.25;9.27;;;-3275.70;82.90;;;;;;5040696;28;20020;-80
2024/01/08 03:38:10;;;;;;;12.57;9.50;;;-3275.70;82.90;;;;;;5053473;28;20055;-80
2024/01/08 03:40:36;;;;;;;13.65;9.90;;;-3275.70;82.10;;;;;;5030776;28;20476;-81
2024/01/08 03:43:02;;;;;;;12.68;9.25;;;-3275.60;81.70;;;;;;5053828;28;20133;-81
2024/01/08 03:45:28;;;;;;;14.52;10.40;;;-3275.60;81.40;;;;;;5048864;28;20036;-80
2024/01/08 03:47:54;;;;;;;13.65;10.38;;;-3275.70;81.90;;;;;;5047352;28;20373;-80
2024/01/08 03:50:19;;;;;;;13.60;9.93;;;-3275.80;82.00;;;;;;5053724;28;20450;-80
2024/01/08 03:52:45;;;;;;;14.57;9.52;;;-3275.70;81.90;;;;;;5045706;28;20234;-80
2024/01/08 03:55:11;;;;;;;14.02;9.95;;;-3275.60;81.70;;;;;;5048753;28;20029;-79
2024/01/08 03:57:36;;;;;;;16.20;11.48;;;-3275.60;81.60;;;;;;5049108;28;20505;-80
2024/01/08 04:00:03;;;;;;;17.17;12.93;;;-3275.50;80.80;;;;;;5031714;28;20035;-80
2024/01/08 04:02:28;;;;;;;15.85;12.30;;;-3275.50;79.60;;;;;;5054009;28;20035;-79
2024/01/08 04:04:54;;;;;;;15.38;11.27;;;-3275.50;79.30;;;;;;5050528;28;20021;-78
2024/01/08 04:07:20;;;;;;;14.77;11.18;;;-3275.50;79.40;;;;;;5050844;28;20029;-79
2024/01/08 04:09:45;;;;;;;14.30;11.07;;;-3275.50;79.50;;;;;;5034028;28;20031;-80
2024/01/08 04:12:12;;;;;;;14.20;10.70;;;-3275.50;80.00;;;;;;5051422;28;20029;-80
2024/01/08 04:14:38;;;;;;;14.80;11.10;;;-3275.50;80.20;;;;;;5039761;28;20406;-81
2024/01/08 04:17:07;;;;;;;14.70;10.80;;;-3275.50;80.10;;;;;;5054571;28;20524;-81
2024/01/08 04:19:33;;;;;;;16.50;10.68;;;-3275.50;80.20;;;;;;5053739;28;20135;-81
2024/01/08 04:21:59;;;;;;;14.90;10.68;;;-3275.50;80.20;;;;;;5052744;28;20373;-80
2024/01/08 04:24:24;;;;;;;14.52;10.07;;;-3275.50;80.10;;;;;;5037564;28;20039;-80
2024/01/08 04:26:50;;;;;;;13.88;10.45;;;-3275.50;80.50;;;;;;5038450;28;20024;-79
2024/01/08 04:29:17;;;;;;;13.05;9.77;;;-3275.50;80.40;;;;;;5050821;28;20052;-80
2024/01/08 04:31:42;;;;;;;13.10;8.98;;;-3275.50;80.50;;;;;;5030460;28;20032;-80
2024/01/08 04:34:09;;;;;;;13.38;8.73;;;-3275.50;80.40;;;;;;5049710;28;20040;-80
2024/01/08 04:36:45;;;;;;;13.60;8.43;;;-3275.50;79.80;;;;;;5052600;28;20555;-80
2024/01/08 04:39:10;;;;;;;13.43;9.60;;;-3275.40;79.20;;;;;;5054834;28;20037;-80
2024/01/08 04:41:36;;;;;;;14.25;9.35;;;-3275.40;78.90;;;;;;5050953;28;20040;-81
2024/01/08 04:44:02;;;;;;;13.15;8.48;;;-3275.40;79.40;;;;;;5049622;28;20322;-80
2024/01/08 04:46:27;;;;;;;11.93;8.43;;;-3275.40;79.50;;;;;;5053783;28;20477;-79
2024/01/08 04:48:53;;;;;;;10.48;8.07;;;-3275.40;79.20;;;;;;5049930;28;20033;-79
2024/01/08 04:51:23;;;;;;;12.35;8.95;;;-3275.40;79.30;;;;;;5050797;28;20441;-80
2024/01/08 04:53:49;;;;;;;11.95;8.80;;;-3275.40;79.40;;;;;;5050093;28;20515;-81
2024/01/08 04:56:27;;;;;;;12.20;8.55;;;-3275.50;79.40;;;;;;5054143;28;20020;-82
2024/01/08 04:58:53;;;;;;;13.70;8.32;;;-3275.50;79.60;;;;;;5033287;28;20032;-82
2024/01/08 05:01:19;;;;;;;12.32;9.40;;;-3275.40;80.00;;;;;;5035266;28;20043;-79
2024/01/08 05:03:45;;;;;;;13.52;9.25;;;-3275.50;80.20;;;;;;5036008;28;20029;-80
2024/01/08 05:06:12;;;;;;;13.43;9.05;;;-3275.50;80.40;;;;;;5038238;28;20024;-79
2024/01/08 05:08:38;;;;;;;13.13;9.85;;;-3275.40;79.60;;;;;;5029588;28;20091;-80
2024/01/08 05:11:07;;;;;;;13.55;9.50;;;-3275.50;80.10;;;;;;5039377;28;20043;-80
2024/01/08 05:13:34;;;;;;;15.43;10.40;;;-3275.50;80.40;;;;;;5031733;28;20450;-79
2024/01/08 05:16:00;;;;;;;12.13;9.07;;;-3275.50;80.70;;;;;;5051976;28;20041;-80
2024/01/08 05:18:26;;;;;;;12.70;9.35;;;-3275.50;80.30;;;;;;5051253;28;20033;-80
2024/01/08 05:20:52;;;;;;;16.38;10.30;;;-3275.50;80.40;;;;;;5048332;28;20045;-79
2024/01/08 05:23:17;;;;;;;14.77;10.48;;;-3275.50;80.30;;;;;;5034773;28;20043;-80
2024/01/08 05:25:43;;;;;;;14.50;10.48;;;-3275.50;80.10;;;;;;5053641;28;20350;-80
2024/01/08 05:28:09;;;;;;;12.85;9.77;;;-3275.50;80.20;;;;;;5031763;28;20033;-79
2024/01/08 05:30:34;;;;;;;17.17;10.23;;;-3275.60;80.40;;;;;;5047207;28;20025;-80
2024/01/08 05:33:00;;;;;;;13.45;9.52;;;-3275.50;80.00;;;;;;5044776;28;20129;-81
2024/01/08 05:35:26;;;;;;;13.68;9.70;;;-3275.50;80.40;;;;;;5050271;28;20020;-81
2024/01/08 05:37:52;;;;;;;12.80;9.27;;;-3275.50;80.70;;;;;;5052580;28;20032;-81
2024/01/08 05:40:17;;;;;;;13.30;8.82;;;-3275.40;80.60;;;;;;5053540;28;20036;-81
2024/01/08 05:42:43;;;;;;;14.32;9.02;;;-3275.40;80.60;;;;;;5050828;28;20101;-81
2024/01/08 05:45:10;;;;;;;12.85;8.85;;;-3275.40;81.00;;;;;;5047945;28;20338;-81
2024/01/08 05:47:36;;;;;;;13.45;9.50;;;-3275.40;80.70;;;;;;5049111;28;20477;-80
2024/01/08 05:50:05;;;;;;;12.45;8.90;;;-3275.40;81.00;;;;;;5034885;28;20020;-80
2024/01/08 05:52:31;;;;;;;13.70;9.15;;;-3275.40;81.20;;;;;;5030894;28;20044;-80
2024/01/08 05:54:57;;;;;;;12.88;9.02;;;-3275.30;81.30;;;;;;5049008;28;20021;-79
2024/01/08 05:57:23;;;;;;;14.13;9.15;;;-3275.30;81.40;;;;;;5057075;28;20028;-81
2024/01/08 05:59:49;;;;;;;12.18;8.32;;;-3275.30;81.70;;;;;;5057117;28;20033;-80
2024/01/08 06:02:14;;;;;;;12.90;9.02;;;-3275.20;81.80;;;;;;5038198;28;20078;-80
2024/01/08 06:04:40;;;;;;;12.90;9.00;;;-3275.20;82.10;;;;;;5056530;28;20012;-80
2024/01/08 06:07:06;;;;;;;12.32;8.45;;;-3275.10;82.20;;;;;;5040578;28;20049;-80
2024/01/08 06:09:32;;;;;;;14.05;8.95;;;-3275.10;82.20;;;;;;5037320;28;20240;-80
2024/01/08 06:12:00;;;;;;;14.13;9.43;;;-3275.00;82.40;;;;;;5043033;28;20039;-80
2024/01/08 06:14:26;;;;;;;15.70;9.75;;;-3275.00;82.60;;;;;;5052374;28;20040;-82
2024/01/08 06:16:52;;;;;;;13.73;9.32;;;-3275.00;82.40;;;;;;5054668;28;20582;-80
2024/01/08 06:19:18;;;;;;;14.70;9.20;;;-3275.00;82.70;;;;;;5053459;28;20162;-81
2024/01/08 06:21:44;;;;;;;15.00;9.40;;;-3275.00;82.80;;;;;;5056741;28;20070;-80
2024/01/08 06:24:09;;;;;;;13.73;9.68;;;-3275.00;82.90;;;;;;5031011;28;20419;-80
2024/01/08 06:26:35;;;;;;;16.50;10.35;;;-3274.80;82.90;;;;;;5039954;28;20113;-80
2024/01/08 06:29:01;;;;;;;16.20;10.07;;;-3274.90;82.90;;;;;;5042216;28;20342;-80
2024/01/08 06:31:27;;;;;;;14.65;10.48;;;-3274.90;83.00;;;;;;5035561;28;20191;-79
2024/01/08 06:33:53;;;;;;;15.80;9.38;;;-3274.90;83.00;;;;;;5034409;28;20044;-80
2024/01/08 06:36:19;;;;;;;15.77;11.48;;;-3274.90;83.00;;;;;;5037188;28;20512;-81
2024/01/08 06:38:45;;;;;;;13.75;9.90;;;-3274.90;82.80;;;;;;5049564;28;20032;-80
2024/01/08 06:41:11;;;;;;;15.80;10.25;;;-3274.80;82.90;;;;;;5032661;28;20128;-81
2024/01/08 06:43:37;;;;;;;16.70;10.40;;;-3274.80;83.10;;;;;;5048156;28;20062;-82
2024/01/08 06:46:02;;;;;;;15.48;10.57;;;-3274.80;83.30;;;;;;5037587;28;20014;-80
2024/01/08 06:48:28;;;;;;;16.02;10.30;;;-3274.80;83.20;;;;;;5033980;28;20053;-80
2024/01/08 06:50:54;;;;;;;15.35;10.18;;;-3275.00;83.30;;;;;;5037268;28;20106;-81
2024/01/08 06:53:19;;;;;;;17.10;10.10;;;-3274.90;83.10;;;;;;5035954;28;20049;-81
2024/01/08 06:55:45;;;;;;;19.02;10.05;;;-3275.00;83.00;;;;;;5052747;28;20457;-81
2024/01/08 06:58:10;;;;;;;19.73;10.60;;;-3275.00;83.10;;;;;;5053808;28;20506;-80
2024/01/08 07:00:36;;;;;;;18.35;10.07;;;-3275.00;83.20;;;;;;5052143;28;21156;-79
2024/01/08 07:03:02;;;;;;;17.10;11.20;;;-3275.00;83.40;;;;;;5053108;28;20556;-80
2024/01/08 07:05:27;;;;;;;15.20;10.88;;;-3275.10;83.60;;;;;;5053270;28;20055;-80
2024/01/08 07:07:53;;;;;;;15.13;10.80;;;-3275.10;83.50;;;;;;5036534;28;20037;-82
2024/01/08 07:10:19;;;;;;;16.55;10.45;;;-3275.10;83.40;;;;;;5050487;28;20025;-81
2024/01/08 07:12:46;;;;;;;15.88;9.77;;;-3275.10;83.50;;;;;;5055713;28;21001;-81
2024/01/08 07:15:50;;;;;;;18.58;11.35;;;-3275.10;83.90;;;;;;5037975;28;20056;-77
2024/01/08 07:18:16;;;;;;;18.38;10.45;;;-3275.10;84.10;;;;;;5035319;28;20450;-74
2024/01/08 07:20:42;;;;;;;15.07;10.30;;;-3275.10;84.00;;;;;;5048906;28;20032;-78
2024/01/08 07:23:09;;;;;;;15.35;9.45;;;-3275.10;84.10;;;;;;5051951;28;20032;-75
2024/01/08 07:25:37;;;;;;;14.45;9.85;;;-3275.10;83.90;;;;;;5054298;28;20021;-78
2024/01/08 07:28:07;;;;;;;15.15;9.15;;;-3275.20;83.70;;;;;;5035181;28;20326;-78
2024/01/08 07:30:33;;;;;;;14.43;8.65;;;-3275.20;83.20;;;;;;5027835;28;20020;-78
2024/01/08 07:32:59;;;;;;;14.60;8.45;;;-3275.20;83.10;;;;;;5055977;28;20083;-76
2024/01/08 07:35:25;;;;;;;15.18;9.75;;;-3275.10;82.70;;;;;;5058824;28;20032;-77
2024/01/08 07:37:55;;;;;;;18.52;9.07;;;-3275.20;82.80;;;;;;5056025;28;20039;-76
2024/01/08 07:40:25;;;;;;;15.10;8.70;;;-3275.20;82.90;;;;;;5057799;28;20044;-77
2024/01/08 07:42:55;;;;;;;14.13;8.80;;;-3275.30;82.80;;;;;;5040492;28;20036;-76
2024/01/08 07:45:26;;;;;;;13.35;9.63;;;-3275.30;82.90;;;;;;5029095;28;20031;-77
2024/01/08 07:47:52;;;;;;;13.38;7.68;;;-3275.30;82.80;;;;;;5032154;28;20278;-78
2024/01/08 07:50:22;;;;;;;13.25;8.65;;;-3275.30;82.50;;;;;;5051287;28;20020;-78
2024/01/08 07:52:47;;;;;;;12.30;7.65;;;-3275.30;82.70;;;;;;5044915;28;20052;-77
2024/01/08 07:55:13;;;;;;;14.15;8.13;;;-3275.40;82.60;;;;;;5051301;28;20491;-77
2024/01/08 07:57:38;;;;;;;12.48;8.15;;;-3275.40;82.60;;;;;;5050672;28;20037;-79
2024/01/08 08:00:06;;;;;;;12.88;7.80;;;-3275.40;82.60;;;;;;5045075;28;20052;-76
2024/01/08 08:02:33;;;;;;;15.35;8.25;;;-3275.40;82.80;;;;;;5044913;28;20049;-80
2024/01/08 08:04:58;;;;;;;13.77;8.07;;;-3275.40;82.90;;;;;;5039364;28;20047;-77
2024/01/08 08:07:24;;;;;;;12.30;7.80;;;-3275.50;82.80;;;;;;5037739;28;20438;-79
2024/01/08 08:09:50;;;;;;;13.30;8.40;;;-3275.50;82.90;;;;;;5033861;28;20115;-78
2024/01/08 08:12:17;;;;;;;12.73;8.45;;;-3275.50;83.00;;;;;;5053038;28;20117;-78
2024/01/08 08:14:43;;;;;;;13.57;8.02;;;-3275.60;82.90;;;;;;5053949;28;20667;-77
2024/01/08 08:17:09;;;;;;;12.88;7.97;;;-3275.60;82.80;;;;;;5050999;28;20496;-76
2024/01/08 08:19:35;;;;;;;13.57;8.00;;;-3275.60;82.60;;;;;;5038047;28;20033;-77
2024/01/08 08:22:01;;;;;;;14.48;9.18;;;-3275.60;82.60;;;;;;5051765;28;20187;-76
2024/01/08 08:24:26;;;;;;;13.60;8.23;;;-3275.60;82.70;;;;;;5049734;28;20024;-77
2024/01/08 08:26:52;;;;;;;15.73;9.55;;;-3275.60;83.10;;;;;;5048659;28;20198;-77
2024/01/08 08:29:18;;;;;;;14.45;8.68;;;-3275.70;83.20;;;;;;5048183;28;20036;-77
2024/01/08 08:31:43;;;;;;;13.55;8.98;;;-3275.80;83.20;;;;;;5052944;28;20020;-76
2024/01/08 08:34:09;;;;;;;14.10;9.30;;;-3275.80;83.20;;;;;;5045500;28;20033;-78
2024/01/08 08:36:37;;;;;;;16.88;9.52;;;-3275.80;83.40;;;;;;5047075;28;20032;-78
2024/01/08 08:39:03;;;;;;;16.35;9.98;;;-3275.70;83.50;;;;;;5063833;28;20028;-78
2024/01/08 08:41:29;;;;;;;13.38;9.10;;;-3275.80;83.80;;;;;;5055943;28;20028;-77
2024/01/08 08:43:54;;;;;;;14.93;9.55;;;-3275.80;83.90;;;;;;5050578;28;20473;-78
2024/01/08 08:46:20;;;;;;;18.33;10.65;;;-3275.80;83.90;;;;;;5044553;28;20036;-76
2024/01/08 08:48:45;;;;;;;17.00;11.15;;;-3275.80;84.30;;;;;;5028535;28;20040;-77
2024/01/08 08:51:11;;;;;;;17.23;11.65;;;-3275.90;84.40;;;;;;5037264;28;20029;-76
2024/01/08 08:53:37;;;;;;;18.20;12.30;;;-3275.80;84.40;;;;;;5048622;28;20025;-77
2024/01/08 08:56:04;;;;;;;19.67;12.82;;;-3275.90;84.60;;;;;;5048176;28;20052;-79
2024/01/08 08:58:30;;;;;;;19.10;12.45;;;-3275.90;84.60;;;;;;5031803;28;20422;-78
2024/01/08 09:00:56;;;;;;;20.17;12.40;;;-3275.90;84.70;;;;;;5051345;28;20116;-79
2024/01/08 09:03:22;;;;;;;21.08;13.15;;;-3275.90;84.90;;;;;;5053360;28;20039;-79
2024/01/08 09:05:48;;;;;;;20.67;13.35;;;-3275.90;85.00;;;;;;5052037;28;20113;-77
2024/01/08 09:08:14;;;;;;;23.48;13.90;;;-3275.90;85.00;;;;;;5029547;28;20121;-77
2024/01/08 09:10:39;;;;;;;20.70;13.88;;;-3276.00;85.00;;;;;;5035715;28;20026;-78
2024/01/08 09:13:05;;;;;;;22.13;14.80;;;-3276.00;85.20;;;;;;5038288;28;20465;-76
2024/01/08 09:15:31;;;;;;;21.55;13.70;;;-3276.00;84.90;;;;;;5036984;28;20795;-77
2024/01/08 09:17:56;;;;;;;21.42;13.48;;;-3276.00;85.00;;;;;;5053008;28;20035;-78
2024/01/08 09:20:23;;;;;;;20.52;12.88;;;-3276.10;85.10;;;;;;5034210;28;20029;-76
2024/01/08 09:22:48;;;;;;;19.42;12.88;;;-3276.10;84.90;;;;;;5051425;28;20021;-79
2024/01/08 09:25:14;;;;;;;17.70;12.68;;;-3276.10;84.70;;;;;;5051880;28;20027;-77
2024/01/08 09:27:42;;;;;;;18.00;12.60;;;-3276.10;84.60;;;;;;5050400;28;20028;-78
2024/01/08 09:30:08;;;;;;;18.88;12.63;;;-3276.10;84.40;;;;;;5055632;28;20027;-79
2024/01/08 09:32:33;;;;;;;17.02;11.27;;;-3276.10;84.10;;;;;;5054425;28;20029;-78
2024/01/08 09:34:59;;;;;;;20.27;11.93;;;-3276.10;83.60;;;;;;5058766;28;20028;-79
2024/01/08 09:37:25;;;;;;;18.05;11.95;;;-3276.10;83.80;;;;;;5031785;28;20025;-77
2024/01/08 09:39:51;;;;;;;19.27;11.45;;;-3276.10;83.80;;;;;;5047027;28;20504;-75
2024/01/08 09:42:19;;;;;;;17.85;11.73;;;-3276.10;83.90;;;;;;5051824;28;20040;-78
2024/01/08 09:44:47;;;;;;;18.13;11.02;;;-3276.10;83.90;;;;;;5060549;28;20025;-77
2024/01/08 09:47:15;;;;;;;18.25;11.18;;;-3276.10;84.20;;;;;;5027202;28;20029;-80
2024/01/08 09:49:42;;;;;;;16.70;10.52;;;-3276.10;84.00;;;;;;5055819;28;20016;-77
2024/01/08 09:52:11;;;;;;;16.25;10.80;;;-3276.10;84.10;;;;;;5054965;28;20453;-78
2024/01/08 09:54:38;;;;;;;18.63;11.52;;;-3276.10;84.10;;;;;;5029685;28;20223;-76
2024/01/08 09:57:04;;;;;;;17.33;10.77;;;-3276.10;84.40;;;;;;5050526;28;20017;-76
2024/01/08 09:59:31;;;;;;;16.80;11.15;;;-3276.10;84.60;;;;;;5047755;28;20047;-76
2024/01/08 10:01:57;;;;;;;19.73;12.00;;;-3276.30;84.80;;;;;;5056424;28;20123;-77
2024/01/08 10:04:26;;;;;;;17.77;12.13;;;-3276.30;84.40;;;;;;5034204;28;20127;-79
2024/01/08 10:07:12;;;;;;;20.77;12.43;;;-3276.20;84.60;;;;;;5055684;28;20271;-77
2024/01/08 10:09:38;;;;;;;19.85;11.77;;;-3276.20;84.80;;;;;;5053897;28;20036;-79
2024/01/08 10:12:08;;;;;;;19.55;12.00;;;-3276.30;84.80;;;;;;5038699;28;20021;-77
2024/01/08 10:14:34;;;;;;;18.38;12.18;;;-3276.30;84.80;;;;;;5054122;28;20029;-79
2024/01/08 10:17:00;;;;;;;18.77;12.00;;;-3276.30;84.80;;;;;;5057419;28;20048;-77
2024/01/08 10:19:27;;;;;;;18.48;12.40;;;-3276.30;84.60;;;;;;5049352;28;20432;-76
2024/01/08 10:22:13;;;;;;;18.27;12.38;;;-3276.40;84.70;;;;;;5035592;28;20059;-77
2024/01/08 10:24:46;;;;;;;18.42;12.55;;;-3276.40;84.50;;;;;;5038040;28;20385;-77
2024/01/08 10:27:12;;;;;;;19.70;14.02;;;-3276.50;84.70;;;;;;5039731;28;20035;-77
2024/01/08 10:29:40;;;;;;;20.17;14.32;;;-3276.60;84.60;;;;;;5036837;28;20028;-78
2024/01/08 10:32:06;;;;;;;21.98;12.60;;;-3276.70;84.10;;;;;;5051858;28;20353;-77
2024/01/08 10:34:36;;;;;;;18.02;12.23;;;0.00;83.60;;;;;;5037099;28;20435;-78
2024/01/08 10:37:01;;;;;;;20.40;12.75;;;0.00;83.20;;;;;;5039817;28;20009;-78
2024/01/08 10:39:30;;;;;;;16.38;12.23;;;-3276.60;83.40;;;;;;5054326;28;20036;-76
2024/01/08 10:41:57;;;;;;;20.70;12.75;;;-3276.70;83.30;;;;;;5052861;28;20031;-77
2024/01/08 10:44:24;;;;;;;17.38;12.80;;;-3276.70;83.00;;;;;;5037248;28;20083;-78
2024/01/08 10:47:03;;;;;;;17.65;12.15;;;0.00;83.40;;;;;;5039105;28;20210;-80
2024/01/08 10:49:33;;;;;;;17.58;11.82;;;-3276.70;82.90;;;;;;5056751;28;20032;-77
2024/01/08 10:52:23;;;;;;;18.45;12.93;;;-3276.60;82.40;;;;;;5036688;28;20017;-76
2024/01/08 10:54:55;;;;;;;19.00;12.80;;;0.00;82.40;;;;;;5036348;28;20399;-74
2024/01/08 10:57:23;;;;;;;21.27;12.90;;;0.00;82.30;;;;;;5031547;28;20092;-75
2024/01/08 10:59:51;;;;;;;17.17;12.35;;;0.00;81.70;;;;;;5037204;28;20028;-75
2024/01/08 11:02:17;;;;;;;20.42;12.65;;;0.00;81.60;;;;;;5050701;28;20408;-76
2024/01/08 11:04:43;;;;;;;18.55;12.82;;;0.00;80.90;;;;;;5038668;28;20095;-80
2024/01/08 11:07:13;;;;;;;19.73;11.93;;;0.00;81.10;;;;;;5034712;28;20167;-78
2024/01/08 11:09:39;;;;;;;17.67;12.57;;;0.00;80.60;;;;;;5051671;28;20068;-77
2024/01/08 11:12:10;;;;;;;15.77;11.57;;;0.00;80.70;;;;;;5057603;28;20024;-78
2024/01/08 11:14:36;;;;;;;18.88;11.77;;;0.00;80.00;;;;;;5036179;28;20095;-77
2024/01/08 11:17:02;;;;;;;19.35;13.20;;;0.00;80.30;;;;;;5036821;28;20045;-77
2024/01/08 11:19:30;;;;;;;16.58;11.23;;;0.00;80.70;;;;;;5046165;28;20107;-77
2024/01/08 11:22:10;;;;;;;18.65;11.45;;;0.00;80.60;;;;;;5052829;28;20088;-76
2024/01/08 11:24:36;;;;;;;18.40;11.07;;;0.00;81.00;;;;;;5050836;28;20033;-78
2024/01/08 11:27:02;;;;;;;20.35;12.55;;;0.00;80.90;;;;;;5039430;28;20106;-78
2024/01/08 11:29:27;;;;;;;16.23;9.63;;;0.00;80.40;;;;;;5036599;28;20036;-77
2024/01/08 11:32:31;;;;;;;15.25;9.75;;;0.00;79.60;;;;;;5036564;28;20093;-77
2024/01/08 11:35:00;;;;;;;16.30;10.02;;;0.00;79.20;;;;;;5020758;28;20079;-76
2024/01/08 11:37:33;;;;;;;14.32;9.13;;;0.00;78.70;;;;;;5036816;28;20036;-78
2024/01/08 11:40:19;;;;;;;15.25;9.43;;;-3276.70;78.30;;;;;;5049908;28;20075;-78
2024/01/08 11:42:52;;;;;;;13.00;9.55;;;-3276.70;78.50;;;;;;5050902;28;20052;-80
2024/01/08 11:45:19;;;;;;;15.02;9.27;;;-3276.70;78.40;;;;;;5047328;28;20024;-80
2024/01/08 11:47:46;;;;;;;13.55;9.32;;;-3276.70;78.20;;;;;;5048681;28;20029;-79
2024/01/08 11:50:13;;;;;;;14.82;10.18;;;-3276.70;78.90;;;;;;5038255;28;20024;-77
2024/01/08 11:52:40;;;;;;;13.93;9.70;;;-3276.70;79.00;;;;;;5050106;28;20021;-80
2024/01/08 11:55:08;;;;;;;14.98;10.77;;;-3276.70;79.10;;;;;;5048938;28;20449;-79
2024/01/08 11:57:38;;;;;;;12.27;8.00;;;0.00;79.20;;;;;;5030165;28;20033;-80
2024/01/08 12:00:19;;;;;;;14.35;8.98;;;0.00;78.60;;;;;;5050610;28;20129;-80
2024/01/08 12:02:47;;;;;;;14.40;9.38;;;-3276.70;79.20;;;;;;5036883;28;20040;-80
2024/01/08 12:05:13;;;;;;;14.10;9.80;;;-3276.70;79.20;;;;;;5041395;28;20032;-78
2024/01/08 12:07:39;;;;;;;15.35;9.60;;;-3276.60;79.40;;;;;;5033954;28;20029;-79